Time;durP1;ratioP1;P1;durP2;ratioP2;P2;SDS_P1;SDS_P2;PMS_P1;PMS_P2;Temp;Humidity;BMP_temperature;BMP_pressure;BME280_temperature;BME280_humidity;BME280_pressure;Samples;Min_cycle;Max_cycle;Signal;HPM_P1;HPM_P2
2021/06/04 00:01:33;;;;;;;5.78;2.92;;;;;;;;;;5110379;28;20535;-67
2021/06/04 00:04:28;;;;;;;6.97;3.10;;;;;;;;;;5126275;27;20380;-67
2021/06/04 00:06:54;;;;;;;6.43;2.80;;;;;;;;;;5110190;28;20044;-67
2021/06/04 00:11:00;;;;;;;4.47;2.50;;;;;;;;;;5126525;27;20369;-67
2021/06/04 00:17:13;;;;;;;6.75;2.95;;;;;;;;;;5126305;27;20862;-67
2021/06/04 00:19:39;;;;;;;5.68;2.90;;;;;;;;;;5108676;28;20059;-67
2021/06/04 00:22:08;;;;;;;8.35;2.72;;;;;;;;;;5109138;28;20432;-67
2021/06/04 00:24:37;;;;;;;7.55;3.78;;;;;;;;;;5109146;28;20077;-67
2021/06/04 00:28:07;;;;;;;5.00;3.00;;;;;;;;;;5125987;27;20376;-67
2021/06/04 00:30:33;;;;;;;5.20;3.20;;;;;;;;;;5109146;28;20027;-67
2021/06/04 00:33:00;;;;;;;4.28;2.47;;;;;;;;;;5110356;28;20019;-68
2021/06/04 00:35:26;;;;;;;7.75;3.42;;;;;;;;;;5109966;28;20028;-67
2021/06/04 00:37:52;;;;;;;9.32;2.97;;;;;;;;;;5108972;28;20024;-67
2021/06/04 00:43:46;;;;;;;5.20;2.50;;;;;;;;;;5126435;27;20380;-67
2021/06/04 00:48:18;;;;;;;5.82;3.20;;;;;;;;;;5129413;27;20556;-67
2021/06/04 00:50:49;;;;;;;4.85;2.72;;;;;;;;;;5130951;28;20023;-67
2021/06/04 00:53:16;;;;;;;5.40;3.08;;;;;;;;;;5130902;28;20425;-67
2021/06/04 00:55:42;;;;;;;7.78;3.42;;;;;;;;;;5130401;28;20015;-67
2021/06/04 01:00:41;;;;;;;7.15;3.13;;;;;;;;;;5126263;27;20846;-67
2021/06/04 01:03:08;;;;;;;5.40;3.00;;;;;;;;;;5108697;28;20044;-67
2021/06/04 01:07:42;;;;;;;5.90;3.08;;;;;;;;;;5126385;27;20378;-67
2021/06/04 01:11:52;;;;;;;6.97;2.97;;;;;;;;;;5126262;27;20733;-67
2021/06/04 01:14:39;;;;;;;6.32;3.17;;;;;;;;;;5110461;28;20040;-67
2021/06/04 01:17:11;;;;;;;4.78;2.75;;;;;;;;;;5110127;28;20046;-67
2021/06/04 01:21:26;;;;;;;6.00;2.45;;;;;;;;;;5133363;27;20122;-68
2021/06/04 01:24:11;;;;;;;4.50;2.72;;;;;;;;;;5112311;28;20027;-67
2021/06/04 01:26:54;;;;;;;8.02;2.78;;;;;;;;;;5112740;28;20027;-69
2021/06/04 01:31:06;;;;;;;5.32;2.97;;;;;;;;;;5125937;27;20381;-68
2021/06/04 01:33:37;;;;;;;7.95;3.28;;;;;;;;;;5110406;28;20483;-68
2021/06/04 01:36:04;;;;;;;4.82;2.40;;;;;;;;;;5110474;28;20081;-68
2021/06/04 01:41:39;;;;;;;4.13;2.30;;;;;;;;;;5126379;27;20591;-67
2021/06/04 01:44:11;;;;;;;3.85;2.83;;;;;;;;;;5110251;28;20027;-67
2021/06/04 01:50:17;;;;;;;5.65;2.85;;;;;;;;;;5126401;27;20376;-67
2021/06/04 01:52:44;;;;;;;5.00;2.80;;;;;;;;;;5108695;28;20054;-67
2021/06/04 01:56:17;;;;;;;7.18;3.38;;;;;;;;;;5126292;27;20464;-68
2021/06/04 01:59:52;;;;;;;4.65;2.83;;;;;;;;;;5126024;27;20372;-67
2021/06/04 02:02:20;;;;;;;6.85;3.08;;;;;;;;;;5110400;28;20039;-67
2021/06/04 02:04:50;;;;;;;7.15;3.10;;;;;;;;;;5110074;28;20024;-67
2021/06/04 02:07:32;;;;;;;6.85;3.17;;;;;;;;;;5126340;27;20369;-67
2021/06/04 02:09:59;;;;;;;4.43;2.85;;;;;;;;;;5109146;28;20056;-67
2021/06/04 02:12:26;;;;;;;5.20;2.70;;;;;;;;;;5108662;28;20034;-67
2021/06/04 02:14:55;;;;;;;5.97;3.17;;;;;;;;;;5109087;28;20027;-67
2021/06/04 02:17:29;;;;;;;6.45;3.10;;;;;;;;;;5109074;28;20046;-67
2021/06/04 02:20:08;;;;;;;4.95;2.58;;;;;;;;;;5109892;28;20038;-67
2021/06/04 02:25:35;;;;;;;5.07;2.95;;;;;;;;;;5126548;27;20864;-67
2021/06/04 02:28:05;;;;;;;7.07;3.15;;;;;;;;;;5109242;28;20060;-67
2021/06/04 02:32:20;;;;;;;7.60;3.33;;;;;;;;;;5126336;27;20380;-67
2021/06/04 02:34:53;;;;;;;8.65;3.53;;;;;;;;;;5110135;28;20024;-67
2021/06/04 02:38:01;;;;;;;4.82;2.83;;;;;;;;;;5126391;27;20373;-67
2021/06/04 02:40:33;;;;;;;5.13;3.17;;;;;;;;;;5108887;28;20032;-67
2021/06/04 02:44:44;;;;;;;5.55;2.95;;;;;;;;;;5126547;27;20738;-67
2021/06/04 02:54:10;;;;;;;5.93;3.30;;;;;;;;;;5132878;27;20129;-67
2021/06/04 02:56:42;;;;;;;5.38;2.85;;;;;;;;;;5131003;28;20033;-67
2021/06/04 02:59:13;;;;;;;6.60;2.90;;;;;;;;;;5130844;28;20138;-67
2021/06/04 03:01:42;;;;;;;6.35;2.85;;;;;;;;;;5130634;28;20027;-67
2021/06/04 03:08:36;;;;;;;7.13;2.67;;;;;;;;;;5143149;27;20385;-68
2021/06/04 03:12:10;;;;;;;5.45;3.00;;;;;;;;;;5126387;27;20370;-67
2021/06/04 03:14:37;;;;;;;5.18;2.97;;;;;;;;;;5110507;28;20031;-67
2021/06/04 03:18:51;;;;;;;7.60;3.40;;;;;;;;;;5129913;27;20580;-67
2021/06/04 03:21:24;;;;;;;4.63;2.78;;;;;;;;;;5131260;28;20107;-67
2021/06/04 03:24:15;;;;;;;4.55;2.80;;;;;;;;;;5126433;27;20438;-67
2021/06/04 03:28:11;;;;;;;7.68;2.80;;;;;;;;;;5126854;27;20916;-67
2021/06/04 03:30:40;;;;;;;8.73;3.38;;;;;;;;;;5110857;28;20031;-67
2021/06/04 03:33:07;;;;;;;5.93;2.78;;;;;;;;;;5110743;28;20047;-68
2021/06/04 03:36:49;;;;;;;5.55;3.10;;;;;;;;;;5126215;27;20373;-68
2021/06/04 03:39:18;;;;;;;5.00;3.00;;;;;;;;;;5110717;28;20031;-68
2021/06/04 03:42:26;;;;;;;5.60;3.08;;;;;;;;;;5126888;27;20869;-68
2021/06/04 03:44:52;;;;;;;7.35;3.53;;;;;;;;;;5110436;28;20498;-68
2021/06/04 03:49:50;;;;;;;5.00;3.03;;;;;;;;;;5126704;27;20381;-68
2021/06/04 03:52:20;;;;;;;5.47;3.05;;;;;;;;;;5109528;28;20422;-68
2021/06/04 03:54:47;;;;;;;7.95;3.15;;;;;;;;;;5110966;28;20020;-68
2021/06/04 03:57:14;;;;;;;4.68;3.00;;;;;;;;;;5110254;28;20026;-68
2021/06/04 03:59:43;;;;;;;16.17;3.95;;;;;;;;;;5110507;28;20016;-68
2021/06/04 04:02:10;;;;;;;8.73;3.47;;;;;;;;;;5110617;28;20024;-67
2021/06/04 04:04:37;;;;;;;6.22;2.63;;;;;;;;;;5110167;28;20024;-68
2021/06/04 04:09:15;;;;;;;4.60;2.88;;;;;;;;;;5127244;27;20373;-67
2021/06/04 04:12:26;;;;;;;4.68;3.03;;;;;;;;;;5126066;27;20369;-67
2021/06/04 04:14:52;;;;;;;7.97;3.13;;;;;;;;;;5110611;28;20099;-68
2021/06/04 04:17:18;;;;;;;6.45;3.15;;;;;;;;;;5110368;28;20084;-68
2021/06/04 04:25:10;;;;;;;6.25;3.35;;;;;;;;;;5133063;27;20131;-68
2021/06/04 04:27:36;;;;;;;4.97;3.22;;;;;;;;;;5130968;28;20023;-68
2021/06/04 04:30:03;;;;;;;5.60;3.08;;;;;;;;;;5112509;28;20391;-68
2021/06/04 04:32:30;;;;;;;4.47;2.85;;;;;;;;;;5130481;28;20127;-68
2021/06/04 04:34:56;;;;;;;6.47;3.08;;;;;;;;;;5112399;28;20468;-68
2021/06/04 04:37:55;;;;;;;6.10;3.47;;;;;;;;;;5126390;27;20380;-68
2021/06/04 04:40:22;;;;;;;6.78;3.70;;;;;;;;;;5110132;28;20422;-68
2021/06/04 04:42:48;;;;;;;6.18;3.55;;;;;;;;;;5110577;28;20081;-68
2021/06/04 04:45:15;;;;;;;4.75;3.28;;;;;;;;;;5110428;28;20353;-68
2021/06/04 04:47:42;;;;;;;5.53;3.05;;;;;;;;;;5108927;28;20088;-68
2021/06/04 04:50:54;;;;;;;5.80;3.30;;;;;;;;;;5126130;27;20381;-68
2021/06/04 04:53:20;;;;;;;7.13;3.05;;;;;;;;;;5110020;28;20031;-68
2021/06/04 04:55:46;;;;;;;4.88;3.17;;;;;;;;;;5110409;28;20073;-68
2021/06/04 04:58:32;;;;;;;4.75;2.30;;;;;;;;;;5126428;27;20373;-68
2021/06/04 05:00:58;;;;;;;4.93;2.92;;;;;;;;;;5110225;28;20081;-68
2021/06/04 05:03:26;;;;;;;5.88;3.08;;;;;;;;;;5109239;28;20020;-68
2021/06/04 05:06:24;;;;;;;5.57;2.40;;;;;;;;;;5122570;27;20408;-65
2021/06/04 05:08:51;;;;;;;6.93;3.10;;;;;;;;;;5068974;28;20043;-66
2021/06/04 05:11:18;;;;;;;5.80;3.17;;;;;;;;;;5065396;28;20343;-66
2021/06/04 05:13:44;;;;;;;6.05;3.13;;;;;;;;;;5071494;28;20105;-66
2021/06/04 05:16:53;;;;;;;6.35;2.67;;;;;;;;;;5126004;27;20397;-66
2021/06/04 05:19:20;;;;;;;5.85;2.95;;;;;;;;;;5107504;28;20020;-68
2021/06/04 05:23:03;;;;;;;4.53;2.40;;;;;;;;;;5153715;27;195461;-68
2021/06/04 05:25:31;;;;;;;6.00;2.55;;;;;;;;;;5127601;27;20046;-69
2021/06/04 05:27:57;;;;;;;6.90;2.83;;;;;;;;;;5130264;27;20098;-70
2021/06/04 05:31:54;;;;;;;7.30;4.10;;;;;;;;;;5125193;27;20377;-68
2021/06/04 05:34:20;;;;;;;6.22;3.38;;;;;;;;;;5109316;28;20035;-70
2021/06/04 05:36:47;;;;;;;6.47;3.25;;;;;;;;;;5109105;28;20549;-67
2021/06/04 05:41:09;;;;;;;8.85;3.58;;;;;;;;;;5117784;27;20381;-69
2021/06/04 05:43:37;;;;;;;5.65;3.45;;;;;;;;;;5105369;28;20468;-68
2021/06/04 05:46:05;;;;;;;6.20;3.40;;;;;;;;;;5107284;28;20024;-67
2021/06/04 05:48:31;;;;;;;4.70;2.90;;;;;;;;;;5107593;28;20031;-71
2021/06/04 05:52:21;;;;;;;4.22;2.45;;;;;;;;;;5122961;27;20412;-70
2021/06/04 05:54:48;;;;;;;5.97;3.10;;;;;;;;;;5105821;28;20416;-71
2021/06/04 05:57:15;;;;;;;8.45;3.05;;;;;;;;;;5108049;28;20431;-72
2021/06/04 06:01:21;;;;;;;6.35;2.97;;;;;;;;;;5123936;27;20384;-72
2021/06/04 06:03:47;;;;;;;4.38;2.78;;;;;;;;;;5109008;28;20124;-69
2021/06/04 06:06:13;;;;;;;5.45;2.78;;;;;;;;;;5105673;28;20153;-69
2021/06/04 06:09:29;;;;;;;8.35;3.45;;;;;;;;;;5124340;27;20408;-69
2021/06/04 06:11:55;;;;;;;5.38;2.88;;;;;;;;;;5108795;28;20023;-69
2021/06/04 06:14:22;;;;;;;5.30;3.17;;;;;;;;;;5109761;28;20422;-68
2021/06/04 06:19:39;;;;;;;6.55;3.30;;;;;;;;;;5129659;27;20328;-69
2021/06/04 06:23:35;;;;;;;8.77;2.88;;;;;;;;;;5125197;27;20381;-72
2021/06/04 06:27:58;;;;;;;4.22;3.03;;;;;;;;;;5125190;27;20385;-70
2021/06/04 06:32:19;;;;;;;9.05;3.47;;;;;;;;;;5125334;27;20384;-67
2021/06/04 06:35:20;;;;;;;5.68;3.00;;;;;;;;;;5125832;27;20380;-69
2021/06/04 06:39:18;;;;;;;5.90;2.88;;;;;;;;;;5099807;27;20380;-68
2021/06/04 06:41:45;;;;;;;6.68;2.63;;;;;;;;;;5103964;28;20024;-70
2021/06/04 06:44:12;;;;;;;3.72;2.20;;;;;;;;;;5103938;28;20020;-69
2021/06/04 06:46:39;;;;;;;5.28;2.58;;;;;;;;;;5108042;28;20024;-69
2021/06/04 06:52:30;;;;;;;6.47;2.53;;;;;;;;;;5125650;27;20491;-68
2021/06/04 06:54:56;;;;;;;7.50;2.70;;;;;;;;;;5107301;28;20023;-69
2021/06/04 06:57:23;;;;;;;6.30;3.25;;;;;;;;;;5108760;28;20031;-68
2021/06/04 07:01:39;;;;;;;6.18;3.42;;;;;;;;;;5123575;27;20401;-69
2021/06/04 07:04:05;;;;;;;5.75;3.03;;;;;;;;;;5108327;28;20066;-69
2021/06/04 07:08:44;;;;;;;5.97;3.15;;;;;;;;;;5104027;27;20476;-68
2021/06/04 07:11:11;;;;;;;6.47;2.88;;;;;;;;;;5107533;28;20016;-68
2021/06/04 07:13:38;;;;;;;5.40;3.13;;;;;;;;;;5108074;28;20044;-70
2021/06/04 07:16:06;;;;;;;6.93;3.08;;;;;;;;;;5104782;28;20023;-67
2021/06/04 07:18:32;;;;;;;4.55;2.88;;;;;;;;;;5108830;28;20063;-68
2021/06/04 07:20:58;;;;;;;8.82;3.60;;;;;;;;;;5108036;28;20032;-71
2021/06/04 07:23:26;;;;;;;11.77;3.33;;;;;;;;;;5109779;28;20019;-70
2021/06/04 07:25:53;;;;;;;5.55;2.83;;;;;;;;;;5108800;28;20060;-70
2021/06/04 07:28:20;;;;;;;9.07;3.20;;;;;;;;;;5109067;28;20444;-71
2021/06/04 07:30:47;;;;;;;6.95;3.33;;;;;;;;;;5109346;28;20419;-69
2021/06/04 07:33:20;;;;;;;14.02;3.70;;;;;;;;;;5106240;28;20076;-68
2021/06/04 07:35:46;;;;;;;5.88;3.03;;;;;;;;;;5123410;28;20016;-70
2021/06/04 07:38:13;;;;;;;7.40;3.05;;;;;;;;;;5110353;27;20106;-70
2021/06/04 07:40:40;;;;;;;9.10;3.00;;;;;;;;;;5109166;28;20107;-72
2021/06/04 07:43:11;;;;;;;4.90;2.63;;;;;;;;;;5109059;28;20028;-72
2021/06/04 07:45:38;;;;;;;8.18;3.60;;;;;;;;;;5109247;28;20491;-71
2021/06/04 07:49:27;;;;;;;5.75;3.10;;;;;;;;;;5125366;27;20377;-71
2021/06/04 07:51:55;;;;;;;5.30;2.78;;;;;;;;;;5108795;28;20028;-71
2021/06/04 07:54:23;;;;;;;10.07;4.80;;;;;;;;;;5108599;28;20027;-73
2021/06/04 07:57:32;;;;;;;9.82;5.15;;;;;;;;;;5121115;27;20372;-72
2021/06/04 07:59:59;;;;;;;9.95;3.00;;;;;;;;;;5108713;28;20111;-70
2021/06/04 08:02:25;;;;;;;7.05;2.92;;;;;;;;;;5110267;28;20530;-73
2021/06/04 08:04:52;;;;;;;7.95;3.38;;;;;;;;;;5107979;28;20375;-70
2021/06/04 08:07:18;;;;;;;9.77;2.42;;;;;;;;;;5109825;28;20034;-72
2021/06/04 08:09:45;;;;;;;6.40;2.40;;;;;;;;;;5109187;28;20472;-70
2021/06/04 08:12:15;;;;;;;6.35;2.50;;;;;;;;;;5107977;28;20081;-71
2021/06/04 08:14:41;;;;;;;7.95;3.28;;;;;;;;;;5109402;28;20479;-70
2021/06/04 08:17:09;;;;;;;3.08;1.75;;;;;;;;;;5108332;28;20407;-74
2021/06/04 08:19:37;;;;;;;9.02;2.38;;;;;;;;;;5108183;28;20050;-72
2021/06/04 08:22:06;;;;;;;5.10;2.65;;;;;;;;;;5110168;28;20069;-73
2021/06/04 08:24:33;;;;;;;5.40;2.15;;;;;;;;;;5108392;28;20020;-71
2021/06/04 08:27:01;;;;;;;4.90;2.08;;;;;;;;;;5107471;28;21005;-71
2021/06/04 08:29:30;;;;;;;6.13;2.13;;;;;;;;;;5109642;28;20024;-70
2021/06/04 08:31:56;;;;;;;4.18;2.08;;;;;;;;;;5104989;28;20023;-69
2021/06/04 08:34:23;;;;;;;3.88;2.15;;;;;;;;;;5108816;28;20023;-69
2021/06/04 08:36:50;;;;;;;5.03;2.10;;;;;;;;;;5109738;28;20392;-69
2021/06/04 08:39:35;;;;;;;5.03;1.92;;;;;;;;;;5126465;27;20932;-68
2021/06/04 08:42:07;;;;;;;6.15;2.42;;;;;;;;;;5102405;28;20127;-69
2021/06/04 08:45:40;;;;;;;2.75;1.52;;;;;;;;;;5125170;27;20369;-68
2021/06/04 08:48:06;;;;;;;7.63;3.63;;;;;;;;;;5109928;28;20027;-71
2021/06/04 08:50:43;;;;;;;8.98;2.38;;;;;;;;;;5108228;28;20024;-68
2021/06/04 08:54:47;;;;;;;4.55;2.00;;;;;;;;;;5124746;27;20384;-68
2021/06/04 08:59:09;;;;;;;7.07;2.97;;;;;;;;;;5125335;27;20436;-69
2021/06/04 09:01:44;;;;;;;6.00;2.15;;;;;;;;;;5109612;28;20032;-75
2021/06/04 09:04:22;;;;;;;3.90;1.88;;;;;;;;;;5105320;28;20032;-72
2021/06/04 09:06:54;;;;;;;4.35;1.75;;;;;;;;;;5109351;28;20030;-75
2021/06/04 09:09:24;;;;;;;4.27;2.00;;;;;;;;;;5108769;28;20144;-73
2021/06/04 09:12:44;;;;;;;4.93;2.20;;;;;;;;;;5125768;27;20384;-73
2021/06/04 09:15:11;;;;;;;6.20;1.80;;;;;;;;;;5109801;28;20060;-73
2021/06/04 09:17:49;;;;;;;5.10;1.85;;;;;;;;;;5110164;28;20024;-73
2021/06/04 09:20:15;;;;;;;4.07;1.90;;;;;;;;;;5109239;28;20023;-73
2021/06/04 09:22:46;;;;;;;6.35;1.70;;;;;;;;;;5110441;28;20020;-73
2021/06/04 09:25:14;;;;;;;3.70;1.67;;;;;;;;;;5110732;28;20020;-74
2021/06/04 09:27:43;;;;;;;5.07;1.80;;;;;;;;;;5110695;28;20056;-77
2021/06/04 09:30:12;;;;;;;4.70;1.92;;;;;;;;;;5110563;28;20099;-74
2021/06/04 09:32:39;;;;;;;4.38;2.22;;;;;;;;;;5110475;28;20046;-75
2021/06/04 09:35:19;;;;;;;5.35;2.10;;;;;;;;;;5109777;28;20422;-76
2021/06/04 09:37:46;;;;;;;6.25;1.92;;;;;;;;;;5110072;28;20020;-73
2021/06/04 09:40:27;;;;;;;3.55;2.08;;;;;;;;;;5107962;28;20020;-72
2021/06/04 09:43:02;;;;;;;4.45;2.30;;;;;;;;;;5109794;28;20019;-73
2021/06/04 09:45:30;;;;;;;4.60;2.53;;;;;;;;;;5108888;28;20106;-76
2021/06/04 09:48:06;;;;;;;4.43;2.10;;;;;;;;;;5109717;28;20529;-74
2021/06/04 09:50:50;;;;;;;4.30;2.38;;;;;;;;;;5109306;28;20035;-78
2021/06/04 09:53:20;;;;;;;5.35;1.80;;;;;;;;;;5109271;28;20051;-76
2021/06/04 09:55:50;;;;;;;3.67;2.17;;;;;;;;;;5106855;28;20538;-71
2021/06/04 09:58:19;;;;;;;3.25;1.70;;;;;;;;;;5107766;28;20400;-72
2021/06/04 10:00:51;;;;;;;5.13;1.80;;;;;;;;;;5105993;28;20522;-71
2021/06/04 10:03:31;;;;;;;3.35;1.83;;;;;;;;;;5108545;28;20027;-73
2021/06/04 10:06:07;;;;;;;4.07;1.40;;;;;;;;;;5109255;28;20016;-72
2021/06/04 10:08:41;;;;;;;2.40;1.50;;;;;;;;;;5109111;28;20023;-76
2021/06/04 10:11:13;;;;;;;3.92;1.55;;;;;;;;;;5108241;28;20130;-73
2021/06/04 10:13:42;;;;;;;2.03;1.45;;;;;;;;;;5108815;28;20016;-74
2021/06/04 10:16:29;;;;;;;3.42;1.65;;;;;;;;;;5107652;28;20042;-73
2021/06/04 10:18:55;;;;;;;2.03;1.20;;;;;;;;;;5108789;28;20011;-72
2021/06/04 10:21:27;;;;;;;2.95;1.50;;;;;;;;;;5108910;28;20027;-73
2021/06/04 10:23:55;;;;;;;2.50;1.63;;;;;;;;;;5095121;28;20027;-72
2021/06/04 10:26:21;;;;;;;4.88;1.48;;;;;;;;;;5088842;28;20089;-71
2021/06/04 10:29:06;;;;;;;3.47;1.77;;;;;;;;;;5094765;28;20043;-73
2021/06/04 10:32:53;;;;;;;1.92;1.45;;;;;;;;;;5125538;27;20374;-76
2021/06/04 10:35:23;;;;;;;3.00;1.30;;;;;;;;;;5109504;28;20023;-68
2021/06/04 10:37:53;;;;;;;5.47;1.60;;;;;;;;;;5110089;28;20012;-75
2021/06/04 10:40:26;;;;;;;5.03;1.92;;;;;;;;;;5109980;28;20471;-74
2021/06/04 10:42:52;;;;;;;4.25;1.70;;;;;;;;;;5109387;28;20020;-70
2021/06/04 10:46:24;;;;;;;4.75;1.20;;;;;;;;;;5125288;27;20388;-75
2021/06/04 10:49:07;;;;;;;2.35;1.23;;;;;;;;;;5108602;28;20035;-72
2021/06/04 10:51:33;;;;;;;;;;;;;;;;;;5109247;28;20043;-74
2021/06/04 10:54:18;;;;;;;3.90;1.77;;;;;;;;;;5109416;28;19904;-73
2021/06/04 10:56:48;;;;;;;6.05;1.38;;;;;;;;;;5108153;28;20028;-73
2021/06/04 10:59:17;;;;;;;3.03;1.40;;;;;;;;;;5109636;28;20027;-72
2021/06/04 11:01:46;;;;;;;3.67;1.42;;;;;;;;;;5108887;28;20028;-71
2021/06/04 11:04:21;;;;;;;2.92;1.50;;;;;;;;;;5109772;28;20236;-71
2021/06/04 11:07:08;;;;;;;3.70;1.83;;;;;;;;;;5109638;28;20081;-72
2021/06/04 11:09:43;;;;;;;2.08;1.40;;;;;;;;;;5110067;28;20208;-69
2021/06/04 11:12:28;;;;;;;5.75;1.80;;;;;;;;;;5109871;28;20016;-69
2021/06/04 11:14:59;;;;;;;3.53;1.73;;;;;;;;;;5108018;28;20020;-69
2021/06/04 11:17:44;;;;;;;4.25;1.77;;;;;;;;;;5109867;28;20028;-70
2021/06/04 11:20:46;;;;;;;3.00;1.30;;;;;;;;;;5109389;28;20476;-71
2021/06/04 11:23:21;;;;;;;3.50;1.55;;;;;;;;;;5107083;28;20035;-70
2021/06/04 11:25:52;;;;;;;2.75;1.50;;;;;;;;;;5109098;28;20451;-70
2021/06/04 11:28:38;;;;;;;4.78;1.60;;;;;;;;;;5109045;28;20019;-69
2021/06/04 11:31:06;;;;;;;2.92;1.55;;;;;;;;;;5109316;28;20054;-69
2021/06/04 11:33:34;;;;;;;5.38;2.58;;;;;;;;;;5107454;28;20043;-70
2021/06/04 11:36:15;;;;;;;4.40;1.83;;;;;;;;;;5107604;28;20136;-70
2021/06/04 11:38:45;;;;;;;4.90;1.35;;;;;;;;;;5109112;28;20179;-69
2021/06/04 11:41:17;;;;;;;6.07;1.65;;;;;;;;;;5107995;28;20450;-68
2021/06/04 11:43:45;;;;;;;3.53;1.67;;;;;;;;;;5099855;28;20027;-68
2021/06/04 11:46:14;;;;;;;3.28;1.30;;;;;;;;;;5106814;28;20055;-67
2021/06/04 11:48:42;;;;;;;4.55;1.30;;;;;;;;;;5105180;28;20078;-69
2021/06/04 11:51:20;;;;;;;2.67;1.48;;;;;;;;;;5106978;28;20027;-70
2021/06/04 11:53:46;;;;;;;4.80;2.58;;;;;;;;;;5108424;28;20028;-70
2021/06/04 11:56:31;;;;;;;4.97;2.50;;;;;;;;;;5102792;28;20024;-68
2021/06/04 11:58:57;;;;;;;4.07;1.77;;;;;;;;;;5095083;28;20039;-68
2021/06/04 12:01:23;;;;;;;4.60;1.83;;;;;;;;;;5095240;28;20555;-67
2021/06/04 12:03:59;;;;;;;2.65;1.42;;;;;;;;;;5093346;28;20468;-68
2021/06/04 12:06:26;;;;;;;3.05;1.48;;;;;;;;;;5094973;28;20131;-67
2021/06/04 12:08:54;;;;;;;4.18;2.15;;;;;;;;;;5095009;28;20016;-67
2021/06/04 12:11:20;;;;;;;4.13;1.92;;;;;;;;;;5090749;28;20024;-68
2021/06/04 12:13:49;;;;;;;5.07;1.90;;;;;;;;;;5093245;28;20024;-67
2021/06/04 12:16:22;;;;;;;2.85;1.30;;;;;;;;;;5094287;28;20110;-68
2021/06/04 12:18:49;;;;;;;2.63;1.35;;;;;;;;;;5093698;28;20028;-68
2021/06/04 12:21:34;;;;;;;7.50;1.63;;;;;;;;;;5094758;28;20085;-67
2021/06/04 12:24:00;;;;;;;2.90;1.50;;;;;;;;;;5094186;28;20066;-67
2021/06/04 12:26:35;;;;;;;5.75;2.03;;;;;;;;;;5093459;28;20054;-68
2021/06/04 12:29:02;;;;;;;2.33;1.30;;;;;;;;;;5093595;28;20020;-68
2021/06/04 12:31:34;;;;;;;2.45;1.25;;;;;;;;;;5094343;28;20051;-68
2021/06/04 12:34:01;;;;;;;3.33;1.40;;;;;;;;;;5094714;28;20043;-68
2021/06/04 12:36:30;;;;;;;2.40;1.60;;;;;;;;;;5094861;28;20468;-67
2021/06/04 12:39:16;;;;;;;3.35;1.60;;;;;;;;;;5094507;28;20434;-68
2021/06/04 12:41:43;;;;;;;2.88;1.70;;;;;;;;;;5093138;28;20025;-68
2021/06/04 12:44:12;;;;;;;2.38;1.38;;;;;;;;;;5094430;28;20035;-69
2021/06/04 12:46:39;;;;;;;3.47;1.58;;;;;;;;;;5094243;28;20484;-70
2021/06/04 12:49:08;;;;;;;5.78;1.60;;;;;;;;;;5094547;28;20028;-70
2021/06/04 12:51:40;;;;;;;3.42;1.70;;;;;;;;;;5094334;28;20017;-71
2021/06/04 12:54:08;;;;;;;1.75;1.17;;;;;;;;;;5095127;28;20055;-70
2021/06/04 12:56:47;;;;;;;2.72;1.33;;;;;;;;;;5094601;28;20024;-70
2021/06/04 12:59:16;;;;;;;2.85;1.63;;;;;;;;;;5093952;28;20400;-70
2021/06/04 13:01:57;;;;;;;4.90;1.55;;;;;;;;;;5093779;28;20087;-68
2021/06/04 13:04:26;;;;;;;5.05;1.58;;;;;;;;;;5094255;28;20028;-68
2021/06/04 13:06:54;;;;;;;3.60;1.77;;;;;;;;;;5092441;28;20035;-68
2021/06/04 13:09:25;;;;;;;3.40;1.15;;;;;;;;;;5093220;28;20425;-67
2021/06/04 13:11:51;;;;;;;2.67;1.65;;;;;;;;;;5094128;28;20058;-68
2021/06/04 13:14:19;;;;;;;1.92;1.17;;;;;;;;;;5093767;28;20081;-69
2021/06/04 13:16:45;;;;;;;2.40;1.30;;;;;;;;;;5094049;28;20427;-69
2021/06/04 13:19:14;;;;;;;3.25;1.35;;;;;;;;;;5094006;28;20052;-70
2021/06/04 13:21:42;;;;;;;1.17;1.00;;;;;;;;;;5093520;28;20067;-70
2021/06/04 13:24:14;;;;;;;4.80;1.70;;;;;;;;;;5093731;28;20035;-69
2021/06/04 13:26:45;;;;;;;2.72;1.35;;;;;;;;;;5092500;28;20538;-69
2021/06/04 13:29:18;;;;;;;2.27;0.97;;;;;;;;;;5093270;28;20031;-68
2021/06/04 13:31:45;;;;;;;5.22;1.20;;;;;;;;;;5093776;28;20096;-70
2021/06/04 13:34:27;;;;;;;2.17;1.40;;;;;;;;;;5093241;28;20028;-70
2021/06/04 13:36:53;;;;;;;;;;;;;;;;;;5094207;28;20027;-69
2021/06/04 13:39:22;;;;;;;2.78;1.42;;;;;;;;;;5093668;28;19904;-69
2021/06/04 13:41:49;;;;;;;3.17;1.38;;;;;;;;;;5093110;28;20036;-70
2021/06/04 13:44:18;;;;;;;2.17;1.35;;;;;;;;;;5091976;28;20127;-70
2021/06/04 13:46:46;;;;;;;2.58;1.40;;;;;;;;;;5093469;28;20054;-70
2021/06/04 13:49:12;;;;;;;8.43;1.60;;;;;;;;;;5091861;28;20020;-70
2021/06/04 13:51:52;;;;;;;3.15;1.80;;;;;;;;;;5092063;28;20092;-70
2021/06/04 13:54:31;;;;;;;2.53;1.55;;;;;;;;;;5093518;28;20485;-68
2021/06/04 13:57:10;;;;;;;2.25;1.30;;;;;;;;;;5093070;28;20099;-69
2021/06/04 13:59:36;;;;;;;3.97;1.70;;;;;;;;;;5093329;28;20058;-70
2021/06/04 14:02:05;;;;;;;6.75;1.77;;;;;;;;;;5092784;28;20020;-69
2021/06/04 14:04:34;;;;;;;1.48;1.27;;;;;;;;;;5092985;28;20345;-69
2021/06/04 14:07:01;;;;;;;1.67;0.98;;;;;;;;;;5093243;28;20037;-69
2021/06/04 14:09:32;;;;;;;3.10;1.33;;;;;;;;;;5092672;28;20357;-68
2021/06/04 14:12:00;;;;;;;1.48;1.02;;;;;;;;;;5093126;28;20020;-69
2021/06/04 14:14:29;;;;;;;2.25;1.10;;;;;;;;;;5093073;28;20058;-69
2021/06/04 14:16:56;;;;;;;2.22;1.30;;;;;;;;;;5091589;28;20024;-68
2021/06/04 14:19:32;;;;;;;1.92;1.17;;;;;;;;;;5092675;28;20503;-70
2021/06/04 14:21:59;;;;;;;3.40;2.00;;;;;;;;;;5092895;28;20027;-68
2021/06/04 14:24:36;;;;;;;4.45;1.42;;;;;;;;;;5091076;28;20392;-68
2021/06/04 14:27:09;;;;;;;1.52;0.93;;;;;;;;;;5092789;28;20028;-68
2021/06/04 14:29:41;;;;;;;1.95;1.27;;;;;;;;;;5091490;28;20020;-69
2021/06/04 14:32:07;;;;;;;3.08;1.27;;;;;;;;;;5091175;28;20020;-70
2021/06/04 14:34:40;;;;;;;1.20;0.82;;;;;;;;;;5092723;28;20101;-69
2021/06/04 14:37:12;;;;;;;4.45;1.17;;;;;;;;;;5092853;28;20510;-69
2021/06/04 14:39:43;;;;;;;2.17;1.25;;;;;;;;;;5092690;28;20024;-69
2021/06/04 14:42:28;;;;;;;1.92;1.10;;;;;;;;;;5091392;28;20024;-69
2021/06/04 14:44:54;;;;;;;3.05;1.40;;;;;;;;;;5092098;28;20404;-68
2021/06/04 14:47:20;;;;;;;2.60;1.20;;;;;;;;;;5092944;28;20056;-69
2021/06/04 14:49:47;;;;;;;2.20;1.40;;;;;;;;;;5092522;28;20027;-70
2021/06/04 14:52:13;;;;;;;5.03;1.10;;;;;;;;;;5092242;28;20037;-70
2021/06/04 14:54:40;;;;;;;4.53;1.42;;;;;;;;;;5091426;28;20035;-71
2021/06/04 14:57:07;;;;;;;3.40;1.30;;;;;;;;;;5092748;28;20488;-69
2021/06/04 14:59:34;;;;;;;3.30;1.40;;;;;;;;;;5092072;28;20107;-70
2021/06/04 15:02:00;;;;;;;1.80;1.40;;;;;;;;;;5092446;28;20052;-70
2021/06/04 15:04:27;;;;;;;1.73;1.30;;;;;;;;;;5091094;28;20043;-70
2021/06/04 15:06:53;;;;;;;2.33;1.55;;;;;;;;;;5092198;28;20020;-70
2021/06/04 15:09:19;;;;;;;2.25;1.10;;;;;;;;;;5091137;28;20028;-70
2021/06/04 15:11:46;;;;;;;3.95;1.35;;;;;;;;;;5092469;28;20016;-70
2021/06/04 15:14:12;;;;;;;8.05;1.35;;;;;;;;;;5090800;28;20031;-70
2021/06/04 15:16:39;;;;;;;1.42;1.05;;;;;;;;;;5091227;28;20520;-70
2021/06/04 15:19:05;;;;;;;1.83;1.02;;;;;;;;;;5092308;28;20028;-69
2021/06/04 15:21:31;;;;;;;3.78;1.25;;;;;;;;;;5091855;28;20468;-69
2021/06/04 15:23:58;;;;;;;1.55;1.17;;;;;;;;;;5092225;28;20035;-69
2021/06/04 15:26:25;;;;;;;1.83;1.25;;;;;;;;;;5091928;28;20477;-69
2021/06/04 15:28:51;;;;;;;1.98;1.38;;;;;;;;;;5092184;28;20502;-67
2021/06/04 15:31:20;;;;;;;2.85;1.30;;;;;;;;;;5091755;28;20032;-69
2021/06/04 15:33:47;;;;;;;4.28;1.42;;;;;;;;;;5094301;28;20062;-68
2021/06/04 15:36:13;;;;;;;1.58;1.35;;;;;;;;;;5096268;28;20028;-68
2021/06/04 15:38:40;;;;;;;1.98;1.20;;;;;;;;;;5094648;28;20055;-69
2021/06/04 15:41:06;;;;;;;2.13;1.05;;;;;;;;;;5094273;28;20020;-68
2021/06/04 15:43:33;;;;;;;6.05;1.48;;;;;;;;;;5095834;28;20028;-69
2021/06/04 15:45:59;;;;;;;1.88;1.10;;;;;;;;;;5095531;28;20454;-70
2021/06/04 15:48:26;;;;;;;6.72;1.48;;;;;;;;;;5094127;28;20023;-70
2021/06/04 15:50:52;;;;;;;2.42;1.55;;;;;;;;;;5095670;28;20070;-68
2021/06/04 15:53:21;;;;;;;3.53;1.30;;;;;;;;;;5095873;28;20012;-69
2021/06/04 15:55:47;;;;;;;1.20;1.08;;;;;;;;;;5094121;28;20481;-69
2021/06/04 15:58:13;;;;;;;2.33;1.27;;;;;;;;;;5095578;28;20063;-69
2021/06/04 16:00:40;;;;;;;4.07;1.38;;;;;;;;;;5095497;28;20020;-69
2021/06/04 16:03:07;;;;;;;3.60;1.30;;;;;;;;;;5093845;28;20024;-69
2021/06/04 16:05:35;;;;;;;2.60;1.40;;;;;;;;;;5094107;28;20043;-69
2021/06/04 16:08:01;;;;;;;3.70;1.77;;;;;;;;;;5095440;28;20017;-69
2021/06/04 16:10:29;;;;;;;2.65;1.45;;;;;;;;;;5095001;28;20499;-69
2021/06/04 16:12:56;;;;;;;2.05;1.42;;;;;;;;;;5095483;28;20046;-69
2021/06/04 16:15:23;;;;;;;3.53;1.85;;;;;;;;;;5095431;28;20150;-69
2021/06/04 16:17:50;;;;;;;4.60;1.70;;;;;;;;;;5094768;28;20020;-69
2021/06/04 16:20:18;;;;;;;5.22;1.92;;;;;;;;;;5093950;28;20024;-69
2021/06/04 16:22:44;;;;;;;2.63;1.40;;;;;;;;;;5094696;28;20024;-69
2021/06/04 16:25:12;;;;;;;5.05;2.00;;;;;;;;;;5095044;28;20609;-69
2021/06/04 16:27:39;;;;;;;3.80;1.90;;;;;;;;;;5094894;28;20095;-70
2021/06/04 16:30:07;;;;;;;2.92;1.85;;;;;;;;;;5094612;28;20024;-69
2021/06/04 16:32:35;;;;;;;5.32;1.83;;;;;;;;;;5095019;28;20020;-69
2021/06/04 16:35:01;;;;;;;5.10;1.90;;;;;;;;;;5095015;28;20047;-69
2021/06/04 16:37:27;;;;;;;2.92;1.52;;;;;;;;;;5094645;28;20060;-69
2021/06/04 16:39:53;;;;;;;5.65;1.35;;;;;;;;;;5094715;28;20020;-69
2021/06/04 16:42:20;;;;;;;3.25;1.60;;;;;;;;;;5094564;28;20024;-69